sensor_id;sensor_type;location;lat;lon;timestamp;P1;P2;P0
46681;PMS5003;34101;53.430;-2.224;2022-10-12T00:02:26;9;9;
46681;PMS5003;34101;53.430;-2.224;2022-10-12T00:04:53;12;7;
46681;PMS5003;34101;53.430;-2.224;2022-10-12T00:07:21;7;6;
46681;PMS5003;34101;53.430;-2.224;2022-10-12T00:09:49;9;8;
46681;PMS5003;34101;53.430;-2.224;2022-10-12T00:12:17;11;8;
46681;PMS5003;34101;53.430;-2.224;2022-10-12T00:14:44;16;10;
46681;PMS5003;34101;53.430;-2.224;2022-10-12T00:17:12;11;10;
46681;PMS5003;34101;53.430;-2.224;2022-10-12T00:19:39;8;7;
46681;PMS5003;34101;53.430;-2.224;2022-10-12T00:22:07;6;6;
46681;PMS5003;34101;53.430;-2.224;2022-10-12T00:24:35;7;7;
46681;PMS5003;34101;53.430;-2.224;2022-10-12T00:27:02;9;7;
46681;PMS5003;34101;53.430;-2.224;2022-10-12T00:29:29;10;8;
46681;PMS5003;34101;53.430;-2.224;2022-10-12T00:31:57;8;7;
46681;PMS5003;34101;53.430;-2.224;2022-10-12T00:34:24;10;7;
46681;PMS5003;34101;53.430;-2.224;2022-10-12T00:36:52;7;7;
46681;PMS5003;34101;53.430;-2.224;2022-10-12T00:39:21;11;8;
46681;PMS5003;34101;53.430;-2.224;2022-10-12T00:41:48;8;8;
46681;PMS5003;34101;53.430;-2.224;2022-10-12T00:44:50;11;11;
46681;PMS5003;34101;53.430;-2.224;2022-10-12T00:47:20;8;8;
46681;PMS5003;34101;53.430;-2.224;2022-10-12T00:49:53;7;6;
46681;PMS5003;34101;53.430;-2.224;2022-10-12T00:52:25;8;8;
46681;PMS5003;34101;53.430;-2.224;2022-10-12T00:54:57;8;8;
46681;PMS5003;34101;53.430;-2.224;2022-10-12T00:57:26;10;8;
46681;PMS5003;34101;53.430;-2.224;2022-10-12T00:59:55;12;9;
46681;PMS5003;34101;53.430;-2.224;2022-10-12T01:02:27;7;7;
46681;PMS5003;34101;53.430;-2.224;2022-10-12T01:04:57;8;8;
46681;PMS5003;34101;53.430;-2.224;2022-10-12T01:07:25;6;6;
46681;PMS5003;34101;53.430;-2.224;2022-10-12T01:09:52;5;5;
46681;PMS5003;34101;53.430;-2.224;2022-10-12T01:12:20;5;5;
46681;PMS5003;34101;53.430;-2.224;2022-10-12T01:14:49;6;6;
46681;PMS5003;34101;53.430;-2.224;2022-10-12T01:17:20;7;6;
46681;PMS5003;34101;53.430;-2.224;2022-10-12T01:20:01;10;9;
46681;PMS5003;34101;53.430;-2.224;2022-10-12T01:22:47;7;6;
46681;PMS5003;34101;53.430;-2.224;2022-10-12T01:25:34;7;7;
46681;PMS5003;34101;53.430;-2.224;2022-10-12T01:28:16;6;6;
46681;PMS5003;34101;53.430;-2.224;2022-10-12T01:30:50;7;5;
46681;PMS5003;34101;53.430;-2.224;2022-10-12T01:33:24;7;5;
46681;PMS5003;34101;53.430;-2.224;2022-10-12T01:36:02;5;4;
46681;PMS5003;34101;53.430;-2.224;2022-10-12T01:38:39;6;6;
46681;PMS5003;34101;53.430;-2.224;2022-10-12T01:41:15;5;5;
46681;PMS5003;34101;53.430;-2.224;2022-10-12T01:43:45;4;4;
46681;PMS5003;34101;53.430;-2.224;2022-10-12T01:46:47;7;6;
46681;PMS5003;34101;53.430;-2.224;2022-10-12T01:49:15;9;5;
46681;PMS5003;34101;53.430;-2.224;2022-10-12T01:51:53;4;4;
46681;PMS5003;34101;53.430;-2.224;2022-10-12T01:54:59;6;5;
46681;PMS5003;34101;53.430;-2.224;2022-10-12T01:57:39;6;6;
46681;PMS5003;34101;53.430;-2.224;2022-10-12T02:00:16;4;4;
46681;PMS5003;34101;53.430;-2.224;2022-10-12T02:02:47;9;5;
46681;PMS5003;34101;53.430;-2.224;2022-10-12T02:05:21;8;6;
46681;PMS5003;34101;53.430;-2.224;2022-10-12T02:07:56;4;4;
46681;PMS5003;34101;53.430;-2.224;2022-10-12T02:10:31;5;5;
46681;PMS5003;34101;53.430;-2.224;2022-10-12T02:13:04;9;6;
46681;PMS5003;34101;53.430;-2.224;2022-10-12T02:15:35;5;5;
46681;PMS5003;34101;53.430;-2.224;2022-10-12T02:18:05;5;5;
46681;PMS5003;34101;53.430;-2.224;2022-10-12T02:20:35;7;4;
46681;PMS5003;34101;53.430;-2.224;2022-10-12T02:23:08;6;5;
46681;PMS5003;34101;53.430;-2.224;2022-10-12T02:25:36;5;3;
46681;PMS5003;34101;53.430;-2.224;2022-10-12T02:28:06;6;5;
46681;PMS5003;34101;53.430;-2.224;2022-10-12T02:30:36;7;6;
46681;PMS5003;34101;53.430;-2.224;2022-10-12T02:33:12;5;5;
46681;PMS5003;34101;53.430;-2.224;2022-10-12T02:35:49;4;3;
46681;PMS5003;34101;53.430;-2.224;2022-10-12T02:38:21;6;5;
46681;PMS5003;34101;53.430;-2.224;2022-10-12T02:40:56;6;6;
46681;PMS5003;34101;53.430;-2.224;2022-10-12T02:43:28;3;3;
46681;PMS5003;34101;53.430;-2.224;2022-10-12T02:46:02;5;5;
46681;PMS5003;34101;53.430;-2.224;2022-10-12T02:48:31;5;5;
46681;PMS5003;34101;53.430;-2.224;2022-10-12T02:51:00;5;5;
46681;PMS5003;34101;53.430;-2.224;2022-10-12T02:53:28;9;8;
46681;PMS5003;34101;53.430;-2.224;2022-10-12T02:55:58;7;7;
46681;PMS5003;34101;53.430;-2.224;2022-10-12T02:58:28;4;4;
46681;PMS5003;34101;53.430;-2.224;2022-10-12T03:00:56;6;5;
46681;PMS5003;34101;53.430;-2.224;2022-10-12T03:03:23;5;5;
46681;PMS5003;34101;53.430;-2.224;2022-10-12T03:05:50;7;6;
46681;PMS5003;34101;53.430;-2.224;2022-10-12T03:08:18;6;4;
46681;PMS5003;34101;53.430;-2.224;2022-10-12T03:10:45;5;5;
46681;PMS5003;34101;53.430;-2.224;2022-10-12T03:13:13;5;4;
46681;PMS5003;34101;53.430;-2.224;2022-10-12T03:15:40;6;6;
46681;PMS5003;34101;53.430;-2.224;2022-10-12T03:18:08;6;6;
46681;PMS5003;34101;53.430;-2.224;2022-10-12T03:20:35;8;5;
46681;PMS5003;34101;53.430;-2.224;2022-10-12T03:23:03;5;4;
46681;PMS5003;34101;53.430;-2.224;2022-10-12T03:25:31;6;6;
46681;PMS5003;34101;53.430;-2.224;2022-10-12T03:27:58;6;6;
46681;PMS5003;34101;53.430;-2.224;2022-10-12T03:30:26;6;4;
46681;PMS5003;34101;53.430;-2.224;2022-10-12T03:32:53;5;5;
46681;PMS5003;34101;53.430;-2.224;2022-10-12T03:35:21;6;6;
46681;PMS5003;34101;53.430;-2.224;2022-10-12T03:37:48;6;6;
46681;PMS5003;34101;53.430;-2.224;2022-10-12T03:40:15;8;5;
46681;PMS5003;34101;53.430;-2.224;2022-10-12T03:42:43;6;3;
46681;PMS5003;34101;53.430;-2.224;2022-10-12T03:45:10;7;5;
46681;PMS5003;34101;53.430;-2.224;2022-10-12T03:47:38;5;5;
46681;PMS5003;34101;53.430;-2.224;2022-10-12T03:50:05;7;6;
46681;PMS5003;34101;53.430;-2.224;2022-10-12T03:52:32;7;7;
46681;PMS5003;34101;53.430;-2.224;2022-10-12T03:55:00;6;6;
46681;PMS5003;34101;53.430;-2.224;2022-10-12T03:57:27;6;6;
46681;PMS5003;34101;53.430;-2.224;2022-10-12T03:59:55;6;6;
46681;PMS5003;34101;53.430;-2.224;2022-10-12T04:02:22;6;5;
46681;PMS5003;34101;53.430;-2.224;2022-10-12T04:04:50;6;6;
46681;PMS5003;34101;53.430;-2.224;2022-10-12T04:07:17;8;6;
46681;PMS5003;34101;53.430;-2.224;2022-10-12T04:09:44;7;6;
46681;PMS5003;34101;53.430;-2.224;2022-10-12T04:12:12;6;6;
46681;PMS5003;34101;53.430;-2.224;2022-10-12T04:14:39;6;6;
46681;PMS5003;34101;53.430;-2.224;2022-10-12T04:17:07;5;5;
46681;PMS5003;34101;53.430;-2.224;2022-10-12T04:19:34;5;4;
46681;PMS5003;34101;53.430;-2.224;2022-10-12T04:22:02;4;4;
46681;PMS5003;34101;53.430;-2.224;2022-10-12T04:24:29;8;6;
46681;PMS5003;34101;53.430;-2.224;2022-10-12T04:26:56;5;5;
46681;PMS5003;34101;53.430;-2.224;2022-10-12T04:29:23;6;6;
46681;PMS5003;34101;53.430;-2.224;2022-10-12T04:31:51;7;7;
46681;PMS5003;34101;53.430;-2.224;2022-10-12T04:34:18;7;6;
46681;PMS5003;34101;53.430;-2.224;2022-10-12T04:36:46;5;5;
46681;PMS5003;34101;53.430;-2.224;2022-10-12T04:39:13;10;5;
46681;PMS5003;34101;53.430;-2.224;2022-10-12T04:41:41;8;6;
46681;PMS5003;34101;53.430;-2.224;2022-10-12T04:44:08;6;4;
46681;PMS5003;34101;53.430;-2.224;2022-10-12T04:46:36;7;5;
46681;PMS5003;34101;53.430;-2.224;2022-10-12T04:49:03;8;7;
46681;PMS5003;34101;53.430;-2.224;2022-10-12T04:51:31;6;6;
46681;PMS5003;34101;53.430;-2.224;2022-10-12T04:53:58;9;7;
46681;PMS5003;34101;53.430;-2.224;2022-10-12T04:56:25;8;6;
46681;PMS5003;34101;53.430;-2.224;2022-10-12T04:58:52;8;6;
46681;PMS5003;34101;53.430;-2.224;2022-10-12T05:01:20;7;4;
46681;PMS5003;34101;53.430;-2.224;2022-10-12T05:03:47;6;6;
46681;PMS5003;34101;53.430;-2.224;2022-10-12T05:06:15;8;5;
46681;PMS5003;34101;53.430;-2.224;2022-10-12T05:08:42;7;5;
46681;PMS5003;34101;53.430;-2.224;2022-10-12T05:11:10;9;7;
46681;PMS5003;34101;53.430;-2.224;2022-10-12T05:13:38;7;5;
46681;PMS5003;34101;53.430;-2.224;2022-10-12T05:16:05;4;4;
46681;PMS5003;34101;53.430;-2.224;2022-10-12T05:18:33;7;6;
46681;PMS5003;34101;53.430;-2.224;2022-10-12T05:21:00;6;5;
46681;PMS5003;34101;53.430;-2.224;2022-10-12T05:23:28;5;5;
46681;PMS5003;34101;53.430;-2.224;2022-10-12T05:25:55;10;8;
46681;PMS5003;34101;53.430;-2.224;2022-10-12T05:28:23;6;6;
46681;PMS5003;34101;53.430;-2.224;2022-10-12T05:30:50;6;6;
46681;PMS5003;34101;53.430;-2.224;2022-10-12T05:33:18;7;7;
46681;PMS5003;34101;53.430;-2.224;2022-10-12T05:35:46;6;6;
46681;PMS5003;34101;53.430;-2.224;2022-10-12T05:38:14;8;7;
46681;PMS5003;34101;53.430;-2.224;2022-10-12T05:40:41;6;6;
46681;PMS5003;34101;53.430;-2.224;2022-10-12T05:43:09;6;6;
46681;PMS5003;34101;53.430;-2.224;2022-10-12T05:45:36;5;5;
46681;PMS5003;34101;53.430;-2.224;2022-10-12T05:48:04;8;8;
46681;PMS5003;34101;53.430;-2.224;2022-10-12T05:50:31;7;7;
46681;PMS5003;34101;53.430;-2.224;2022-10-12T05:52:59;10;8;
46681;PMS5003;34101;53.430;-2.224;2022-10-12T05:55:26;7;7;
46681;PMS5003;34101;53.430;-2.224;2022-10-12T05:57:54;5;5;
46681;PMS5003;34101;53.430;-2.224;2022-10-12T06:00:21;10;8;
46681;PMS5003;34101;53.430;-2.224;2022-10-12T06:02:48;9;7;
46681;PMS5003;34101;53.430;-2.224;2022-10-12T06:05:16;6;6;
46681;PMS5003;34101;53.430;-2.224;2022-10-12T06:07:45;5;5;
46681;PMS5003;34101;53.430;-2.224;2022-10-12T06:10:12;10;6;
46681;PMS5003;34101;53.430;-2.224;2022-10-12T06:12:40;6;6;
46681;PMS5003;34101;53.430;-2.224;2022-10-12T06:15:07;9;8;
46681;PMS5003;34101;53.430;-2.224;2022-10-12T06:17:35;10;7;
46681;PMS5003;34101;53.430;-2.224;2022-10-12T06:20:03;7;7;
46681;PMS5003;34101;53.430;-2.224;2022-10-12T06:22:30;8;8;
46681;PMS5003;34101;53.430;-2.224;2022-10-12T06:24:58;9;8;
46681;PMS5003;34101;53.430;-2.224;2022-10-12T06:27:25;8;7;
46681;PMS5003;34101;53.430;-2.224;2022-10-12T06:29:53;9;8;
46681;PMS5003;34101;53.430;-2.224;2022-10-12T06:32:20;13;11;
46681;PMS5003;34101;53.430;-2.224;2022-10-12T06:34:47;9;8;
46681;PMS5003;34101;53.430;-2.224;2022-10-12T06:37:14;7;6;
46681;PMS5003;34101;53.430;-2.224;2022-10-12T06:39:41;9;9;
46681;PMS5003;34101;53.430;-2.224;2022-10-12T06:42:09;8;8;
46681;PMS5003;34101;53.430;-2.224;2022-10-12T06:44:36;11;7;
46681;PMS5003;34101;53.430;-2.224;2022-10-12T06:47:03;6;6;
46681;PMS5003;34101;53.430;-2.224;2022-10-12T06:49:31;7;6;
46681;PMS5003;34101;53.430;-2.224;2022-10-12T06:51:58;8;8;
46681;PMS5003;34101;53.430;-2.224;2022-10-12T06:54:25;8;7;
46681;PMS5003;34101;53.430;-2.224;2022-10-12T06:56:53;12;9;
46681;PMS5003;34101;53.430;-2.224;2022-10-12T06:59:20;10;9;
46681;PMS5003;34101;53.430;-2.224;2022-10-12T07:01:48;8;6;
46681;PMS5003;34101;53.430;-2.224;2022-10-12T07:04:15;7;7;
46681;PMS5003;34101;53.430;-2.224;2022-10-12T07:06:43;8;7;
46681;PMS5003;34101;53.430;-2.224;2022-10-12T07:09:10;9;8;
46681;PMS5003;34101;53.430;-2.224;2022-10-12T07:11:37;8;8;
46681;PMS5003;34101;53.430;-2.224;2022-10-12T07:14:05;7;5;
46681;PMS5003;34101;53.430;-2.224;2022-10-12T07:16:32;7;7;
46681;PMS5003;34101;53.430;-2.224;2022-10-12T07:19:00;8;7;
46681;PMS5003;34101;53.430;-2.224;2022-10-12T07:21:27;7;7;
46681;PMS5003;34101;53.430;-2.224;2022-10-12T07:23:55;6;5;
46681;PMS5003;34101;53.430;-2.224;2022-10-12T07:26:22;14;9;
46681;PMS5003;34101;53.430;-2.224;2022-10-12T07:28:49;12;11;
46681;PMS5003;34101;53.430;-2.224;2022-10-12T07:31:18;8;8;
46681;PMS5003;34101;53.430;-2.224;2022-10-12T07:33:45;7;6;
46681;PMS5003;34101;53.430;-2.224;2022-10-12T07:36:13;8;5;
46681;PMS5003;34101;53.430;-2.224;2022-10-12T07:38:40;7;7;
46681;PMS5003;34101;53.430;-2.224;2022-10-12T07:41:07;9;6;
46681;PMS5003;34101;53.430;-2.224;2022-10-12T07:43:35;9;9;
46681;PMS5003;34101;53.430;-2.224;2022-10-12T07:46:02;6;6;
46681;PMS5003;34101;53.430;-2.224;2022-10-12T07:48:30;8;8;
46681;PMS5003;34101;53.430;-2.224;2022-10-12T07:51:01;8;7;
46681;PMS5003;34101;53.430;-2.224;2022-10-12T07:53:29;8;8;
46681;PMS5003;34101;53.430;-2.224;2022-10-12T07:55:58;10;7;
46681;PMS5003;34101;53.430;-2.224;2022-10-12T07:58:26;7;7;
46681;PMS5003;34101;53.430;-2.224;2022-10-12T08:00:53;7;6;
46681;PMS5003;34101;53.430;-2.224;2022-10-12T08:03:21;6;6;
46681;PMS5003;34101;53.430;-2.224;2022-10-12T08:05:48;7;7;
46681;PMS5003;34101;53.430;-2.224;2022-10-12T08:08:15;6;6;
46681;PMS5003;34101;53.430;-2.224;2022-10-12T08:10:43;7;7;
46681;PMS5003;34101;53.430;-2.224;2022-10-12T08:13:10;10;7;
46681;PMS5003;34101;53.430;-2.224;2022-10-12T08:15:37;8;6;
46681;PMS5003;34101;53.430;-2.224;2022-10-12T08:18:05;7;7;
46681;PMS5003;34101;53.430;-2.224;2022-10-12T08:20:32;9;8;
46681;PMS5003;34101;53.430;-2.224;2022-10-12T08:23:00;8;7;
46681;PMS5003;34101;53.430;-2.224;2022-10-12T08:25:27;9;8;
46681;PMS5003;34101;53.430;-2.224;2022-10-12T08:27:54;7;5;
46681;PMS5003;34101;53.430;-2.224;2022-10-12T08:30:23;6;6;
46681;PMS5003;34101;53.430;-2.224;2022-10-12T08:32:51;7;5;
46681;PMS5003;34101;53.430;-2.224;2022-10-12T08:35:18;9;8;
46681;PMS5003;34101;53.430;-2.224;2022-10-12T08:37:45;11;8;
46681;PMS5003;34101;53.430;-2.224;2022-10-12T08:40:13;10;9;
46681;PMS5003;34101;53.430;-2.224;2022-10-12T08:42:45;7;7;
46681;PMS5003;34101;53.430;-2.224;2022-10-12T08:45:23;10;8;
46681;PMS5003;34101;53.430;-2.224;2022-10-12T08:47:59;7;7;
46681;PMS5003;34101;53.430;-2.224;2022-10-12T08:50:35;6;6;
46681;PMS5003;34101;53.430;-2.224;2022-10-12T08:53:10;9;9;
46681;PMS5003;34101;53.430;-2.224;2022-10-12T08:55:42;9;8;
46681;PMS5003;34101;53.430;-2.224;2022-10-12T08:58:13;11;8;
46681;PMS5003;34101;53.430;-2.224;2022-10-12T09:00:43;8;7;
46681;PMS5003;34101;53.430;-2.224;2022-10-12T09:03:18;14;12;
46681;PMS5003;34101;53.430;-2.224;2022-10-12T09:05:56;11;8;
46681;PMS5003;34101;53.430;-2.224;2022-10-12T09:08:31;10;8;
46681;PMS5003;34101;53.430;-2.224;2022-10-12T09:11:10;12;9;
46681;PMS5003;34101;53.430;-2.224;2022-10-12T09:13:53;8;8;
46681;PMS5003;34101;53.430;-2.224;2022-10-12T09:16:28;9;9;
46681;PMS5003;34101;53.430;-2.224;2022-10-12T09:19:00;8;8;
46681;PMS5003;34101;53.430;-2.224;2022-10-12T09:21:32;8;8;
46681;PMS5003;34101;53.430;-2.224;2022-10-12T09:24:00;7;7;
46681;PMS5003;34101;53.430;-2.224;2022-10-12T09:26:32;9;9;
46681;PMS5003;34101;53.430;-2.224;2022-10-12T09:29:00;11;11;
46681;PMS5003;34101;53.430;-2.224;2022-10-12T09:31:42;11;10;
46681;PMS5003;34101;53.430;-2.224;2022-10-12T09:34:25;12;12;
46681;PMS5003;34101;53.430;-2.224;2022-10-12T09:36:52;9;9;
46681;PMS5003;34101;53.430;-2.224;2022-10-12T09:39:20;9;9;
46681;PMS5003;34101;53.430;-2.224;2022-10-12T09:41:50;8;8;
46681;PMS5003;34101;53.430;-2.224;2022-10-12T09:44:19;8;7;
46681;PMS5003;34101;53.430;-2.224;2022-10-12T09:46:53;9;8;
46681;PMS5003;34101;53.430;-2.224;2022-10-12T09:49:22;9;8;
46681;PMS5003;34101;53.430;-2.224;2022-10-12T09:52:05;10;8;
46681;PMS5003;34101;53.430;-2.224;2022-10-12T09:54:33;6;6;
46681;PMS5003;34101;53.430;-2.224;2022-10-12T09:57:04;10;7;
46681;PMS5003;34101;53.430;-2.224;2022-10-12T09:59:33;9;6;
46681;PMS5003;34101;53.430;-2.224;2022-10-12T10:02:10;8;8;
46681;PMS5003;34101;53.430;-2.224;2022-10-12T10:04:41;11;8;
46681;PMS5003;34101;53.430;-2.224;2022-10-12T10:07:11;9;8;
46681;PMS5003;34101;53.430;-2.224;2022-10-12T10:09:45;12;11;
46681;PMS5003;34101;53.430;-2.224;2022-10-12T10:12:20;12;10;
46681;PMS5003;34101;53.430;-2.224;2022-10-12T10:14:49;8;8;
46681;PMS5003;34101;53.430;-2.224;2022-10-12T10:17:23;12;9;
46681;PMS5003;34101;53.430;-2.224;2022-10-12T10:19:52;12;11;
46681;PMS5003;34101;53.430;-2.224;2022-10-12T10:22:21;12;10;
46681;PMS5003;34101;53.430;-2.224;2022-10-12T10:24:50;11;11;
46681;PMS5003;34101;53.430;-2.224;2022-10-12T10:27:28;10;10;
46681;PMS5003;34101;53.430;-2.224;2022-10-12T10:30:31;11;9;
46681;PMS5003;34101;53.430;-2.224;2022-10-12T10:33:06;10;9;
46681;PMS5003;34101;53.430;-2.224;2022-10-12T10:35:39;12;11;
46681;PMS5003;34101;53.430;-2.224;2022-10-12T10:38:10;11;10;
46681;PMS5003;34101;53.430;-2.224;2022-10-12T10:40:39;11;11;
46681;PMS5003;34101;53.430;-2.224;2022-10-12T10:43:16;9;9;
46681;PMS5003;34101;53.430;-2.224;2022-10-12T10:45:47;9;9;
46681;PMS5003;34101;53.430;-2.224;2022-10-12T10:48:18;13;10;
46681;PMS5003;34101;53.430;-2.224;2022-10-12T10:50:50;12;12;
46681;PMS5003;34101;53.430;-2.224;2022-10-12T10:53:20;10;9;
46681;PMS5003;34101;53.430;-2.224;2022-10-12T10:55:49;11;10;
46681;PMS5003;34101;53.430;-2.224;2022-10-12T10:58:24;9;8;
46681;PMS5003;34101;53.430;-2.224;2022-10-12T11:00:57;9;9;
46681;PMS5003;34101;53.430;-2.224;2022-10-12T11:03:27;8;8;
46681;PMS5003;34101;53.430;-2.224;2022-10-12T11:06:03;11;10;
46681;PMS5003;34101;53.430;-2.224;2022-10-12T11:08:38;8;8;
46681;PMS5003;34101;53.430;-2.224;2022-10-12T11:11:10;14;9;
46681;PMS5003;34101;53.430;-2.224;2022-10-12T11:13:40;12;12;
46681;PMS5003;34101;53.430;-2.224;2022-10-12T11:16:18;11;11;
46681;PMS5003;34101;53.430;-2.224;2022-10-12T11:18:55;9;9;
46681;PMS5003;34101;53.430;-2.224;2022-10-12T11:21:25;11;11;
46681;PMS5003;34101;53.430;-2.224;2022-10-12T11:24:00;15;10;
46681;PMS5003;34101;53.430;-2.224;2022-10-12T11:26:34;10;8;
46681;PMS5003;34101;53.430;-2.224;2022-10-12T11:29:04;7;7;
46681;PMS5003;34101;53.430;-2.224;2022-10-12T11:31:35;10;8;
46681;PMS5003;34101;53.430;-2.224;2022-10-12T11:34:03;9;9;
46681;PMS5003;34101;53.430;-2.224;2022-10-12T11:36:36;8;7;
46681;PMS5003;34101;53.430;-2.224;2022-10-12T11:39:12;7;7;
46681;PMS5003;34101;53.430;-2.224;2022-10-12T11:41:43;6;6;
46681;PMS5003;34101;53.430;-2.224;2022-10-12T11:44:13;13;10;
46681;PMS5003;34101;53.430;-2.224;2022-10-12T11:46:45;9;7;
46681;PMS5003;34101;53.430;-2.224;2022-10-12T11:49:18;9;7;
46681;PMS5003;34101;53.430;-2.224;2022-10-12T11:51:53;7;7;
46681;PMS5003;34101;53.430;-2.224;2022-10-12T11:54:26;13;9;
46681;PMS5003;34101;53.430;-2.224;2022-10-12T11:56:57;11;10;
46681;PMS5003;34101;53.430;-2.224;2022-10-12T11:59:31;10;6;
46681;PMS5003;34101;53.430;-2.224;2022-10-12T12:02:08;7;7;
46681;PMS5003;34101;53.430;-2.224;2022-10-12T12:04:41;10;10;
46681;PMS5003;34101;53.430;-2.224;2022-10-12T12:07:46;11;9;
46681;PMS5003;34101;53.430;-2.224;2022-10-12T12:10:50;11;6;
46681;PMS5003;34101;53.430;-2.224;2022-10-12T12:13:28;7;7;
46681;PMS5003;34101;53.430;-2.224;2022-10-12T12:16:30;10;8;
46681;PMS5003;34101;53.430;-2.224;2022-10-12T12:19:14;8;7;
46681;PMS5003;34101;53.430;-2.224;2022-10-12T12:22:46;9;8;
46681;PMS5003;34101;53.430;-2.224;2022-10-12T12:25:17;10;9;
46681;PMS5003;34101;53.430;-2.224;2022-10-12T12:27:49;7;7;
46681;PMS5003;34101;53.430;-2.224;2022-10-12T12:30:20;10;7;
46681;PMS5003;34101;53.430;-2.224;2022-10-12T12:32:52;12;9;
46681;PMS5003;34101;53.430;-2.224;2022-10-12T12:35:23;7;7;
46681;PMS5003;34101;53.430;-2.224;2022-10-12T12:38:04;12;8;
46681;PMS5003;34101;53.430;-2.224;2022-10-12T12:40:52;11;10;
46681;PMS5003;34101;53.430;-2.224;2022-10-12T12:43:49;12;10;
46681;PMS5003;34101;53.430;-2.224;2022-10-12T12:46:18;11;11;
46681;PMS5003;34101;53.430;-2.224;2022-10-12T12:49:02;12;9;
46681;PMS5003;34101;53.430;-2.224;2022-10-12T12:51:36;9;8;
46681;PMS5003;34101;53.430;-2.224;2022-10-12T12:54:10;11;11;
46681;PMS5003;34101;53.430;-2.224;2022-10-12T12:56:48;14;12;
46681;PMS5003;34101;53.430;-2.224;2022-10-12T12:59:45;14;11;
46681;PMS5003;34101;53.430;-2.224;2022-10-12T13:02:36;11;9;
46681;PMS5003;34101;53.430;-2.224;2022-10-12T13:06:31;11;9;
46681;PMS5003;34101;53.430;-2.224;2022-10-12T13:09:55;6;6;
46681;PMS5003;34101;53.430;-2.224;2022-10-12T13:12:31;10;8;
46681;PMS5003;34101;53.430;-2.224;2022-10-12T13:15:26;14;10;
46681;PMS5003;34101;53.430;-2.224;2022-10-12T13:18:07;10;10;
46681;PMS5003;34101;53.430;-2.224;2022-10-12T13:21:11;9;9;
46681;PMS5003;34101;53.430;-2.224;2022-10-12T13:23:43;11;9;
46681;PMS5003;34101;53.430;-2.224;2022-10-12T13:26:14;11;9;
46681;PMS5003;34101;53.430;-2.224;2022-10-12T13:28:45;10;10;
46681;PMS5003;34101;53.430;-2.224;2022-10-12T13:31:16;11;10;
46681;PMS5003;34101;53.430;-2.224;2022-10-12T13:33:48;10;10;
46681;PMS5003;34101;53.430;-2.224;2022-10-12T13:36:23;10;9;
46681;PMS5003;34101;53.430;-2.224;2022-10-12T13:38:54;12;10;
46681;PMS5003;34101;53.430;-2.224;2022-10-12T13:41:23;12;11;
46681;PMS5003;34101;53.430;-2.224;2022-10-12T13:43:52;11;11;
46681;PMS5003;34101;53.430;-2.224;2022-10-12T13:46:39;14;12;
46681;PMS5003;34101;53.430;-2.224;2022-10-12T13:49:11;13;11;
46681;PMS5003;34101;53.430;-2.224;2022-10-12T13:51:40;12;12;
46681;PMS5003;34101;53.430;-2.224;2022-10-12T13:54:15;13;12;
46681;PMS5003;34101;53.430;-2.224;2022-10-12T13:56:44;16;13;
46681;PMS5003;34101;53.430;-2.224;2022-10-12T13:59:15;13;12;
46681;PMS5003;34101;53.430;-2.224;2022-10-12T14:01:46;12;11;
46681;PMS5003;34101;53.430;-2.224;2022-10-12T14:04:14;11;10;
46681;PMS5003;34101;53.430;-2.224;2022-10-12T14:06:43;15;15;
46681;PMS5003;34101;53.430;-2.224;2022-10-12T14:09:14;12;11;
46681;PMS5003;34101;53.430;-2.224;2022-10-12T14:11:45;17;14;
46681;PMS5003;34101;53.430;-2.224;2022-10-12T14:14:16;12;11;
46681;PMS5003;34101;53.430;-2.224;2022-10-12T14:16:46;12;11;
46681;PMS5003;34101;53.430;-2.224;2022-10-12T14:19:17;14;13;
46681;PMS5003;34101;53.430;-2.224;2022-10-12T14:21:46;17;15;
46681;PMS5003;34101;53.430;-2.224;2022-10-12T14:24:15;14;14;
46681;PMS5003;34101;53.430;-2.224;2022-10-12T14:26:44;14;13;
46681;PMS5003;34101;53.430;-2.224;2022-10-12T14:29:35;13;12;
46681;PMS5003;34101;53.430;-2.224;2022-10-12T14:32:29;14;13;
46681;PMS5003;34101;53.430;-2.224;2022-10-12T14:35:09;11;11;
46681;PMS5003;34101;53.430;-2.224;2022-10-12T14:37:48;13;12;
46681;PMS5003;34101;53.430;-2.224;2022-10-12T14:40:26;16;13;
46681;PMS5003;34101;53.430;-2.224;2022-10-12T14:42:58;12;11;
46681;PMS5003;34101;53.430;-2.224;2022-10-12T14:45:28;12;12;
46681;PMS5003;34101;53.430;-2.224;2022-10-12T14:47:56;14;14;
46681;PMS5003;34101;53.430;-2.224;2022-10-12T14:50:25;13;11;
46681;PMS5003;34101;53.430;-2.224;2022-10-12T14:52:54;16;15;
46681;PMS5003;34101;53.430;-2.224;2022-10-12T14:55:24;13;13;
46681;PMS5003;34101;53.430;-2.224;2022-10-12T14:57:53;15;13;
46681;PMS5003;34101;53.430;-2.224;2022-10-12T15:00:22;13;13;
46681;PMS5003;34101;53.430;-2.224;2022-10-12T15:02:51;16;15;
46681;PMS5003;34101;53.430;-2.224;2022-10-12T15:05:19;17;15;
46681;PMS5003;34101;53.430;-2.224;2022-10-12T15:07:49;15;14;
46681;PMS5003;34101;53.430;-2.224;2022-10-12T15:10:17;16;16;
46681;PMS5003;34101;53.430;-2.224;2022-10-12T15:12:46;16;15;
46681;PMS5003;34101;53.430;-2.224;2022-10-12T15:15:16;14;13;
46681;PMS5003;34101;53.430;-2.224;2022-10-12T15:17:53;17;13;
46681;PMS5003;34101;53.430;-2.224;2022-10-12T15:20:20;12;12;
46681;PMS5003;34101;53.430;-2.224;2022-10-12T15:22:48;13;13;
46681;PMS5003;34101;53.430;-2.224;2022-10-12T15:25:16;13;13;
46681;PMS5003;34101;53.430;-2.224;2022-10-12T15:27:46;17;15;
46681;PMS5003;34101;53.430;-2.224;2022-10-12T15:30:14;13;12;
46681;PMS5003;34101;53.430;-2.224;2022-10-12T15:32:42;19;14;
46681;PMS5003;34101;53.430;-2.224;2022-10-12T15:35:12;17;17;
46681;PMS5003;34101;53.430;-2.224;2022-10-12T15:37:43;19;17;
46681;PMS5003;34101;53.430;-2.224;2022-10-12T15:40:11;16;15;
46681;PMS5003;34101;53.430;-2.224;2022-10-12T15:42:39;15;12;
46681;PMS5003;34101;53.430;-2.224;2022-10-12T15:45:11;16;14;
46681;PMS5003;34101;53.430;-2.224;2022-10-12T15:47:42;14;12;
46681;PMS5003;34101;53.430;-2.224;2022-10-12T15:50:10;13;13;
46681;PMS5003;34101;53.430;-2.224;2022-10-12T15:52:38;12;12;
46681;PMS5003;34101;53.430;-2.224;2022-10-12T15:55:11;13;13;
46681;PMS5003;34101;53.430;-2.224;2022-10-12T15:57:40;16;14;
46681;PMS5003;34101;53.430;-2.224;2022-10-12T16:00:08;13;12;
46681;PMS5003;34101;53.430;-2.224;2022-10-12T16:02:37;14;13;
46681;PMS5003;34101;53.430;-2.224;2022-10-12T16:05:05;16;16;
46681;PMS5003;34101;53.430;-2.224;2022-10-12T16:07:41;14;12;
46681;PMS5003;34101;53.430;-2.224;2022-10-12T16:10:09;15;14;
46681;PMS5003;34101;53.430;-2.224;2022-10-12T16:12:36;19;16;
46681;PMS5003;34101;53.430;-2.224;2022-10-12T16:15:04;17;14;
46681;PMS5003;34101;53.430;-2.224;2022-10-12T16:17:32;10;10;
46681;PMS5003;34101;53.430;-2.224;2022-10-12T16:19:59;16;15;
46681;PMS5003;34101;53.430;-2.224;2022-10-12T16:22:26;10;10;
46681;PMS5003;34101;53.430;-2.224;2022-10-12T16:24:53;11;11;
46681;PMS5003;34101;53.430;-2.224;2022-10-12T16:27:21;9;9;
46681;PMS5003;34101;53.430;-2.224;2022-10-12T16:29:48;10;9;
46681;PMS5003;34101;53.430;-2.224;2022-10-12T16:32:16;8;8;
46681;PMS5003;34101;53.430;-2.224;2022-10-12T16:34:43;10;10;
46681;PMS5003;34101;53.430;-2.224;2022-10-12T16:37:11;8;8;
46681;PMS5003;34101;53.430;-2.224;2022-10-12T16:39:38;10;10;
46681;PMS5003;34101;53.430;-2.224;2022-10-12T16:42:05;7;7;
46681;PMS5003;34101;53.430;-2.224;2022-10-12T16:44:33;8;8;
46681;PMS5003;34101;53.430;-2.224;2022-10-12T16:47:00;10;10;
46681;PMS5003;34101;53.430;-2.224;2022-10-12T16:49:28;10;10;
46681;PMS5003;34101;53.430;-2.224;2022-10-12T16:51:55;10;9;
46681;PMS5003;34101;53.430;-2.224;2022-10-12T16:54:22;8;8;